• Join FlightAware (Why Join?)
  • Login
  • US Flag 
06:18PM EDT


 

Airport Tracker/Info


-or-


 

Live Flight TrackerFlight Track Log ✈ EGF2517 ✈ 22-Jun-2013 ✈ KDFW - KAMA

Flight Track Log - Related Links

Times and Time Zones

All times are in EDT time to prevent confusion due to time zone crossing. See the EGF2517 flight status page for this flight to view local times or setup timezone preferences in your user account.

Time Position Orientation Groundspeed Altitude Reporting Facility
EDT Latitude Longitude Course Direction KTS MPH feet Rate Location/Type
09:48PM 33.0212 -97.2733 302° West  Level Estimated
09:49PM 33.0626 -97.3518 302° West  Level Estimated
09:50PM 33.1039 -97.4305 302° West  Level Estimated
09:51PM 33.1451 -97.5092 302° West  Level Estimated
09:52PM 33.1864 -97.5880 302° West  Level Estimated
09:53PM 33.2275 -97.6668 302° West  Level Estimated
09:54PM 33.2686 -97.7458 302° West  Level Estimated
09:55PM 33.3097 -97.8248 302° West  Level Estimated
09:56PM 33.3507 -97.9039 302° West  Level Estimated
09:57PM 33.3917 -97.9830 302° West  Level Estimated
09:58PM 33.4326 -98.0623 302° West  Level Estimated
09:59PM 33.4735 -98.1416 302° West  Level Estimated
10:00PM 33.5143 -98.2210 302° West  Level Estimated
10:01PM 33.5550 -98.3004 302° West  Level Estimated
10:02PM 33.5957 -98.3800 302° West  Level Estimated
10:03PM 33.6364 -98.4596 302° West  Level Estimated
10:04PM 33.6770 -98.5392 302° West  Level Estimated
10:05PM 33.7176 -98.6190 301° West  Level Estimated
10:06PM 33.7581 -98.6988 301° West  Level Estimated
10:07PM 33.7985 -98.7787 301° West  Level Estimated
10:08PM 33.8390 -98.8587 301° West  Level Estimated
10:09PM 33.8793 -98.9388 301° West  Level Estimated
10:10PM 33.9196 -99.0189 301° West  Level Estimated
10:11PM 33.9599 -99.0992 301° West  Level Estimated
10:12PM 34.0000 -99.1794 301° West  Level Estimated
10:13PM 34.0402 -99.2598 301° West  Level Estimated
10:14PM 34.0803 -99.3402 301° West  Level Estimated
10:15PM 34.1203 -99.4208 301° West  Level Estimated
10:16PM 34.1603 -99.5014 301° West  Level Estimated
10:17PM 34.2003 -99.5820 301° West  Level Estimated
10:18PM 34.2401 -99.6628 301° West  Level Estimated
10:19PM 34.2800 -99.7436 301° West  Level Estimated
10:20PM 34.3198 -99.8245 301° West  Level Estimated
10:21PM 34.3595 -99.9055 301° West  Level Estimated
10:22PM 34.3991 -99.9865 301° West  Level Estimated
10:23PM 34.4388 -100.0677 301° West  Level Estimated
10:24PM 34.4783 -100.1489 301° West  Level Estimated
10:25PM 34.5178 -100.2301 301° West  Level Estimated
10:26PM 34.5573 -100.3115 301° West  Level Estimated
10:27PM 34.5967 -100.3930 300° West  Level Estimated
10:28PM 34.6360 -100.4745 300° West  Level Estimated
10:29PM 34.6753 -100.5561 300° West  Level Estimated
10:30PM 34.7146 -100.6377 300° West  Level Estimated
10:31PM 34.7537 -100.7195 300° West  Level Estimated
10:32PM 34.7929 -100.8013 300° West  Level Estimated
10:33PM 34.8319 -100.8832 300° West  Level Estimated